Time;durP1;ratioP1;P1;durP2;ratioP2;P2;SDS_P1;SDS_P2;PMS_P1;PMS_P2;Temp;Humidity;BMP_temperature;BMP_pressure;BME280_temperature;BME280_humidity;BME280_pressure;Samples;Min_cycle;Max_cycle;Signal;HPM_P1;HPM_P2
2023/08/09 00:02:25;;;;;;;1.93;1.23;;;21.60;99.90;;;;;;5026399;28;20501;-61
2023/08/09 00:04:52;;;;;;;1.00;1.00;;;21.60;99.90;;;;;;5019443;28;20480;-61
2023/08/09 00:07:19;;;;;;;1.57;1.23;;;21.50;99.90;;;;;;5032617;28;20477;-60
2023/08/09 00:09:47;;;;;;;1.73;1.30;;;21.50;99.90;;;;;;5023609;28;20495;-61
2023/08/09 00:12:14;;;;;;;1.47;1.47;;;21.50;99.90;;;;;;5017354;28;20496;-63
2023/08/09 00:14:41;;;;;;;0.87;0.87;;;21.50;99.90;;;;;;5024317;28;20772;-60
2023/08/09 00:17:08;;;;;;;1.80;1.60;;;21.50;99.90;;;;;;5028655;28;21000;-63
2023/08/09 00:19:35;;;;;;;2.97;1.10;;;21.50;99.90;;;;;;5020755;28;20450;-61
2023/08/09 00:22:02;;;;;;;1.17;1.17;;;21.50;99.90;;;;;;5017067;28;20508;-63
2023/08/09 00:24:29;;;;;;;1.30;1.20;;;21.50;99.90;;;;;;5025723;28;20465;-61
2023/08/09 00:26:57;;;;;;;1.50;1.50;;;21.50;99.90;;;;;;5022438;28;20473;-60
2023/08/09 00:29:23;;;;;;;1.30;1.30;;;21.50;99.90;;;;;;5018283;28;20978;-61
2023/08/09 00:31:50;;;;;;;1.23;1.13;;;21.50;99.90;;;;;;5027510;28;20496;-60
2023/08/09 00:34:17;;;;;;;1.20;1.20;;;21.50;99.90;;;;;;5017141;28;20236;-63
2023/08/09 00:36:44;;;;;;;1.60;1.17;;;21.50;99.90;;;;;;5023752;28;20957;-63
2023/08/09 00:39:11;;;;;;;0.90;0.90;;;21.50;99.90;;;;;;5027631;28;20482;-59
2023/08/09 00:41:38;;;;;;;1.43;1.33;;;21.40;99.90;;;;;;5027737;28;20496;-59
2023/08/09 00:44:06;;;;;;;1.53;1.43;;;21.40;99.90;;;;;;5023538;28;20469;-61
2023/08/09 00:46:33;;;;;;;2.23;2.03;;;21.40;99.90;;;;;;5023781;28;20472;-59
2023/08/09 00:49:00;;;;;;;1.27;1.27;;;21.40;99.90;;;;;;5020815;28;20473;-60
2023/08/09 00:51:27;;;;;;;1.50;1.40;;;21.40;99.90;;;;;;5025954;28;20481;-61
2023/08/09 00:53:54;;;;;;;1.80;1.70;;;21.40;99.90;;;;;;5021948;28;20447;-61
2023/08/09 00:56:21;;;;;;;1.60;1.50;;;21.40;99.90;;;;;;5025368;28;20476;-60
2023/08/09 00:58:48;;;;;;;1.00;1.00;;;21.40;99.90;;;;;;5023222;28;20496;-62
2023/08/09 01:01:16;;;;;;;1.40;1.30;;;21.40;99.90;;;;;;5027153;28;20478;-63
2023/08/09 01:03:44;;;;;;;1.53;1.20;;;21.40;99.90;;;;;;5020189;28;20473;-61
2023/08/09 01:06:17;;;;;;;1.70;1.60;;;21.40;99.90;;;;;;5020055;28;20521;-58
2023/08/09 01:08:50;;;;;;;1.90;1.70;;;21.40;99.90;;;;;;5019384;28;20485;-60
2023/08/09 01:11:25;;;;;;;1.73;1.27;;;21.40;99.90;;;;;;5026738;28;20972;-61
2023/08/09 01:13:54;;;;;;;1.30;1.30;;;21.40;99.90;;;;;;5028027;28;20856;-61
2023/08/09 01:16:27;;;;;;;1.40;1.30;;;21.40;99.90;;;;;;5019784;28;20473;-60
2023/08/09 01:18:56;;;;;;;1.13;1.13;;;21.40;99.90;;;;;;5020575;28;20508;-61
2023/08/09 01:21:28;;;;;;;1.30;1.30;;;21.40;99.90;;;;;;5025748;28;20474;-61
2023/08/09 01:23:57;;;;;;;2.10;1.30;;;21.30;99.90;;;;;;5021327;28;20450;-62
2023/08/09 01:26:25;;;;;;;1.30;1.20;;;21.30;99.90;;;;;;5017852;28;20533;-57
2023/08/09 01:28:52;;;;;;;1.53;1.27;;;21.30;99.90;;;;;;5027713;28;20485;-60
2023/08/09 01:31:18;;;;;;;1.10;1.10;;;21.30;99.90;;;;;;5016036;28;20469;-62
2023/08/09 01:33:45;;;;;;;1.67;1.57;;;21.30;99.90;;;;;;5023043;28;20478;-63
2023/08/09 01:36:19;;;;;;;1.70;1.60;;;21.30;99.90;;;;;;5023012;28;20924;-61
2023/08/09 01:38:54;;;;;;;1.70;1.60;;;21.30;99.90;;;;;;5021463;28;20515;-62
2023/08/09 01:41:23;;;;;;;1.40;1.40;;;21.30;99.90;;;;;;5026040;28;20516;-59
2023/08/09 01:43:52;;;;;;;1.20;1.20;;;21.30;99.90;;;;;;5021864;28;20526;-61
2023/08/09 01:46:20;;;;;;;1.57;1.47;;;21.30;99.90;;;;;;5025359;28;20488;-61
2023/08/09 01:48:46;;;;;;;1.30;1.30;;;21.30;99.90;;;;;;5035266;28;20528;-59
2023/08/09 01:51:13;;;;;;;1.70;1.60;;;21.30;99.90;;;;;;5026670;28;20468;-61
2023/08/09 01:53:40;;;;;;;1.10;1.10;;;21.30;99.90;;;;;;5026939;28;20449;-61
2023/08/09 01:56:07;;;;;;;1.20;1.20;;;21.30;99.90;;;;;;5018756;28;20952;-60
2023/08/09 01:58:36;;;;;;;1.30;1.20;;;21.30;99.90;;;;;;5034927;28;20531;-61
2023/08/09 02:01:03;;;;;;;1.00;1.00;;;21.30;99.90;;;;;;5018366;28;20965;-62
2023/08/09 02:03:30;;;;;;;1.10;1.10;;;21.20;99.90;;;;;;5029596;28;20504;-61
2023/08/09 02:05:57;;;;;;;1.50;1.50;;;21.30;99.90;;;;;;5026473;28;20477;-61
2023/08/09 02:08:23;;;;;;;1.07;1.07;;;21.30;99.90;;;;;;5029571;28;20473;-61
2023/08/09 02:10:50;;;;;;;1.67;1.57;;;21.20;99.90;;;;;;5023490;28;20549;-60
2023/08/09 02:13:17;;;;;;;2.93;1.40;;;21.30;99.90;;;;;;5025372;28;20508;-60
2023/08/09 02:15:46;;;;;;;1.17;1.17;;;21.20;99.90;;;;;;5023033;28;20468;-62
2023/08/09 02:18:12;;;;;;;1.10;1.10;;;21.30;99.90;;;;;;5034614;28;20519;-62
2023/08/09 02:20:39;;;;;;;1.27;1.17;;;21.30;99.90;;;;;;5026149;28;20472;-63
2023/08/09 02:23:06;;;;;;;1.60;1.50;;;21.30;99.90;;;;;;5025657;28;20838;-62
2023/08/09 02:25:33;;;;;;;3.60;1.50;;;21.30;99.90;;;;;;5026357;28;20451;-61
2023/08/09 02:28:00;;;;;;;2.00;1.90;;;21.30;99.90;;;;;;5032612;28;20468;-61
2023/08/09 02:30:27;;;;;;;1.63;1.53;;;21.30;99.90;;;;;;5022658;28;20484;-60
2023/08/09 02:32:55;;;;;;;3.80;1.50;;;21.30;99.90;;;;;;5024963;28;20912;-62
2023/08/09 02:35:22;;;;;;;1.40;1.37;;;21.20;99.90;;;;;;5027472;28;20460;-58
2023/08/09 02:37:49;;;;;;;1.10;1.10;;;21.20;99.90;;;;;;5025936;28;20504;-55
2023/08/09 02:40:16;;;;;;;1.17;1.17;;;21.30;99.90;;;;;;5025814;28;20461;-61
2023/08/09 02:42:43;;;;;;;2.00;1.60;;;21.30;99.90;;;;;;5025234;28;20469;-61
2023/08/09 02:45:10;;;;;;;1.50;1.33;;;21.20;99.90;;;;;;5030711;28;20484;-61
2023/08/09 02:47:37;;;;;;;1.13;1.13;;;21.30;99.90;;;;;;5029465;28;20491;-61
2023/08/09 02:50:07;;;;;;;1.30;1.30;;;21.20;99.90;;;;;;5023579;28;20451;-63
2023/08/09 02:52:34;;;;;;;1.50;1.40;;;21.20;99.90;;;;;;5022067;28;20468;-62
2023/08/09 02:55:02;;;;;;;1.17;1.17;;;21.20;99.90;;;;;;5020319;28;20487;-61
2023/08/09 02:57:29;;;;;;;1.20;1.20;;;21.20;99.90;;;;;;5027925;28;20484;-59
2023/08/09 02:59:56;;;;;;;1.00;1.00;;;21.20;99.90;;;;;;5024540;28;20488;-59
2023/08/09 03:02:23;;;;;;;1.40;1.30;;;21.20;99.90;;;;;;5021820;28;20502;-61
2023/08/09 03:04:50;;;;;;;1.43;1.33;;;21.20;99.90;;;;;;5024029;28;20464;-61
2023/08/09 03:07:19;;;;;;;1.77;1.60;;;21.20;99.90;;;;;;5021568;28;20478;-62
2023/08/09 03:09:47;;;;;;;1.80;1.77;;;21.20;99.90;;;;;;5021958;28;20442;-61
2023/08/09 03:12:13;;;;;;;1.70;1.60;;;21.20;99.90;;;;;;5021863;28;20458;-59
2023/08/09 03:14:40;;;;;;;1.10;1.10;;;21.20;99.90;;;;;;5013802;28;20895;-62
2023/08/09 03:17:07;;;;;;;1.40;1.30;;;21.20;99.90;;;;;;5016350;28;20482;-61
2023/08/09 03:19:34;;;;;;;3.17;1.30;;;21.20;99.90;;;;;;5033559;28;20445;-62
2023/08/09 03:22:01;;;;;;;1.37;1.30;;;21.20;99.90;;;;;;5023171;28;20465;-60
2023/08/09 03:24:29;;;;;;;1.30;1.20;;;21.20;99.90;;;;;;5018864;28;20477;-60
2023/08/09 03:26:56;;;;;;;1.03;1.00;;;21.20;99.90;;;;;;5025133;28;20500;-61
2023/08/09 03:29:23;;;;;;;1.00;1.00;;;21.20;99.90;;;;;;5025108;28;20476;-63
2023/08/09 03:31:50;;;;;;;1.30;1.30;;;21.20;99.90;;;;;;5024681;28;20515;-61
2023/08/09 03:34:17;;;;;;;1.37;1.30;;;21.20;99.90;;;;;;5013470;28;20554;-61
2023/08/09 03:36:44;;;;;;;1.10;1.10;;;21.10;99.90;;;;;;5021013;28;20453;-60
2023/08/09 03:39:11;;;;;;;1.33;1.23;;;21.20;99.90;;;;;;5033004;28;20550;-63
2023/08/09 03:41:39;;;;;;;1.30;1.30;;;21.20;99.90;;;;;;5024812;28;21018;-62
2023/08/09 03:44:07;;;;;;;1.30;1.20;;;21.10;99.90;;;;;;5016812;28;20541;-61
2023/08/09 03:46:36;;;;;;;0.90;0.90;;;21.20;99.90;;;;;;5032999;28;20451;-61
2023/08/09 03:49:03;;;;;;;1.50;1.40;;;21.10;99.90;;;;;;5022767;28;20445;-62
2023/08/09 03:51:30;;;;;;;1.10;1.10;;;21.20;99.90;;;;;;5021093;28;20504;-60
2023/08/09 03:53:57;;;;;;;1.00;1.00;;;21.20;99.90;;;;;;5028379;28;20480;-61
2023/08/09 03:56:24;;;;;;;1.93;1.10;;;21.20;99.90;;;;;;5021159;28;20485;-61
2023/08/09 03:58:52;;;;;;;0.90;0.90;;;21.10;99.90;;;;;;5020946;28;20489;-62
2023/08/09 04:01:19;;;;;;;1.37;0.80;;;21.20;99.90;;;;;;5024186;28;20495;-60
2023/08/09 04:03:47;;;;;;;2.00;1.37;;;21.10;99.90;;;;;;5024711;28;20484;-60
2023/08/09 04:06:14;;;;;;;0.83;0.83;;;21.20;99.90;;;;;;5031726;28;20447;-60
2023/08/09 04:08:40;;;;;;;1.10;1.00;;;21.10;99.90;;;;;;5024295;28;20469;-62
2023/08/09 04:11:08;;;;;;;1.27;1.00;;;21.10;99.90;;;;;;5023898;28;20478;-61
2023/08/09 04:13:35;;;;;;;0.90;0.90;;;21.20;99.90;;;;;;5018372;28;20461;-60
2023/08/09 04:16:03;;;;;;;0.83;0.83;;;21.20;99.90;;;;;;5030967;28;20838;-61
2023/08/09 04:18:31;;;;;;;3.43;3.23;;;21.20;99.90;;;;;;5020648;28;20478;-62
2023/08/09 04:20:58;;;;;;;20.30;19.67;;;21.10;99.90;;;;;;5021555;28;20449;-65
2023/08/09 04:23:25;;;;;;;15.63;15.20;;;21.20;99.90;;;;;;5017417;28;20501;-66
2023/08/09 04:25:52;;;;;;;15.30;14.90;;;21.20;99.90;;;;;;5020553;28;20476;-64
2023/08/09 04:28:19;;;;;;;17.20;16.70;;;21.30;99.90;;;;;;5024066;28;20790;-65
2023/08/09 04:30:46;;;;;;;1.13;1.03;;;21.30;99.90;;;;;;5023759;28;20908;-59
2023/08/09 04:33:14;;;;;;;0.70;0.70;;;21.40;99.90;;;;;;5021108;28;20475;-59
2023/08/09 04:35:42;;;;;;;1.00;1.00;;;21.50;99.90;;;;;;5025285;28;20473;-58
2023/08/09 04:38:08;;;;;;;0.90;0.90;;;21.60;99.90;;;;;;5022532;28;20504;-55
2023/08/09 04:40:37;;;;;;;1.23;1.13;;;21.70;99.90;;;;;;5023541;28;20473;-56
2023/08/09 04:43:04;;;;;;;1.37;1.27;;;21.80;99.90;;;;;;5020981;28;20478;-57
2023/08/09 04:45:32;;;;;;;2.83;1.83;;;21.80;99.90;;;;;;5026539;28;20979;-56
2023/08/09 04:48:00;;;;;;;3.80;1.97;;;21.90;99.90;;;;;;5021018;28;20449;-57
2023/08/09 04:50:29;;;;;;;6.10;1.80;;;21.90;99.90;;;;;;5019688;28;20831;-56
2023/08/09 04:52:56;;;;;;;4.70;2.83;;;21.90;99.90;;;;;;5028168;28;21045;-56
2023/08/09 04:55:23;;;;;;;5.00;2.43;;;21.90;99.90;;;;;;5020114;28;20539;-56
2023/08/09 04:57:50;;;;;;;3.53;1.63;;;21.90;99.90;;;;;;5020039;28;20474;-54
2023/08/09 05:00:18;;;;;;;4.87;2.30;;;21.90;99.90;;;;;;5022867;28;20483;-54
2023/08/09 05:02:45;;;;;;;4.03;1.63;;;21.90;99.90;;;;;;5039428;22;20558;-63
2023/08/09 05:05:12;;;;;;;5.67;1.97;;;21.90;99.90;;;;;;5031477;28;20852;-63
2023/08/09 05:07:40;;;;;;;3.03;1.60;;;21.80;99.90;;;;;;5031413;28;20480;-62
2023/08/09 05:10:08;;;;;;;6.33;4.90;;;21.80;99.90;;;;;;5031389;28;20484;-63
2023/08/09 05:12:35;;;;;;;4.03;1.70;;;21.80;99.90;;;;;;5031124;28;20460;-62
2023/08/09 05:15:03;;;;;;;1.87;1.73;;;21.80;99.90;;;;;;5031340;28;20471;-63
2023/08/09 05:17:30;;;;;;;8.70;2.60;;;21.70;99.90;;;;;;5030803;28;20824;-64
2023/08/09 05:19:56;;;;;;;8.13;2.07;;;21.70;99.90;;;;;;5030773;28;20519;-63
2023/08/09 05:22:24;;;;;;;1.77;1.20;;;21.70;99.90;;;;;;5030990;28;20499;-63
2023/08/09 05:24:52;;;;;;;1.60;1.50;;;21.70;99.90;;;;;;5031335;28;20480;-63
2023/08/09 05:27:19;;;;;;;2.97;1.37;;;21.70;99.90;;;;;;5023048;28;20473;-63
2023/08/09 05:29:46;;;;;;;1.83;1.67;;;21.60;99.90;;;;;;5031383;28;20476;-64
2023/08/09 05:32:14;;;;;;;2.40;1.90;;;21.60;99.90;;;;;;5030892;28;20495;-63
2023/08/09 05:34:40;;;;;;;2.83;1.97;;;21.60;99.90;;;;;;5031043;28;20484;-64
2023/08/09 05:37:07;;;;;;;1.90;1.77;;;21.50;99.90;;;;;;5031095;28;20465;-63
2023/08/09 05:39:34;;;;;;;5.30;1.73;;;21.50;99.90;;;;;;5031129;28;20531;-63
2023/08/09 05:42:03;;;;;;;2.43;1.90;;;21.50;99.90;;;;;;5030680;28;20497;-62
2023/08/09 05:44:30;;;;;;;2.40;1.30;;;21.50;99.90;;;;;;5031113;28;20437;-63
2023/08/09 05:46:57;;;;;;;3.43;1.70;;;21.50;99.90;;;;;;5030915;28;20469;-63
2023/08/09 05:49:24;;;;;;;1.53;1.43;;;21.50;99.90;;;;;;5031043;28;20465;-63
2023/08/09 05:51:51;;;;;;;3.60;1.70;;;21.50;99.90;;;;;;5030710;28;20449;-63
2023/08/09 05:54:17;;;;;;;3.03;1.57;;;21.50;99.90;;;;;;5030907;28;20468;-63
2023/08/09 05:56:44;;;;;;;2.50;1.97;;;21.40;99.90;;;;;;5030919;28;20473;-63
2023/08/09 05:59:13;;;;;;;1.70;1.60;;;21.50;99.90;;;;;;5030922;28;20920;-63
2023/08/09 06:01:40;;;;;;;2.03;1.77;;;21.50;99.90;;;;;;5030606;28;20449;-63
2023/08/09 06:04:07;;;;;;;3.17;1.90;;;21.40;99.90;;;;;;5030756;28;20446;-63
2023/08/09 06:06:35;;;;;;;2.10;1.73;;;21.40;99.90;;;;;;5030883;28;20472;-63
2023/08/09 06:09:04;;;;;;;1.70;1.60;;;21.40;99.90;;;;;;5030748;28;20437;-62
2023/08/09 06:11:32;;;;;;;4.00;1.30;;;21.40;99.90;;;;;;5030719;28;20819;-63
2023/08/09 06:13:59;;;;;;;1.80;1.70;;;21.40;99.90;;;;;;5030643;28;20452;-63
2023/08/09 06:16:28;;;;;;;2.60;1.33;;;21.40;99.90;;;;;;5030744;28;20528;-62
2023/08/09 06:18:55;;;;;;;1.47;1.23;;;21.30;99.90;;;;;;5030762;28;20473;-63
2023/08/09 06:21:22;;;;;;;2.10;2.00;;;21.30;99.90;;;;;;5022587;28;20468;-63
2023/08/09 06:23:49;;;;;;;1.80;1.60;;;21.30;99.90;;;;;;5030729;28;20467;-63
2023/08/09 06:26:16;;;;;;;3.87;1.80;;;21.30;99.90;;;;;;5030699;28;20476;-62
2023/08/09 06:28:42;;;;;;;2.27;1.40;;;21.30;99.90;;;;;;5030744;28;20476;-63
2023/08/09 06:31:09;;;;;;;2.80;1.83;;;21.30;99.90;;;;;;5033869;28;20453;-64
2023/08/09 06:33:42;;;;;;;2.00;1.60;;;21.30;99.90;;;;;;5034226;28;20460;-63
2023/08/09 06:36:09;;;;;;;2.70;1.40;;;21.30;99.90;;;;;;5034321;28;20522;-63
2023/08/09 06:38:36;;;;;;;1.40;1.30;;;21.30;99.90;;;;;;5034070;28;20925;-63
2023/08/09 06:41:04;;;;;;;2.80;1.70;;;21.30;99.90;;;;;;5033858;28;20469;-64
2023/08/09 06:43:31;;;;;;;1.20;1.20;;;21.30;99.90;;;;;;5034185;28;20548;-63
2023/08/09 06:45:59;;;;;;;3.03;1.50;;;21.30;99.90;;;;;;5034076;28;20491;-63
2023/08/09 06:48:29;;;;;;;3.33;2.13;;;21.30;99.90;;;;;;5033977;28;20472;-63
2023/08/09 06:50:58;;;;;;;1.60;1.50;;;21.30;99.90;;;;;;5034117;28;20554;-64
2023/08/09 06:53:25;;;;;;;2.20;2.00;;;21.30;99.90;;;;;;5026192;28;20488;-63
2023/08/09 06:55:52;;;;;;;1.97;1.80;;;21.30;99.90;;;;;;5034093;28;20492;-64
2023/08/09 06:58:20;;;;;;;4.33;1.87;;;21.30;99.90;;;;;;5033714;28;20445;-63
2023/08/09 07:00:47;;;;;;;1.37;1.30;;;21.30;99.90;;;;;;5033726;28;20871;-63
2023/08/09 07:03:14;;;;;;;2.00;1.90;;;21.30;99.90;;;;;;5033541;28;20465;-63
2023/08/09 07:05:41;;;;;;;4.33;1.77;;;21.30;99.90;;;;;;5033757;28;20448;-63
2023/08/09 07:08:10;;;;;;;1.63;1.50;;;21.20;99.90;;;;;;5033920;28;20473;-64
2023/08/09 07:10:37;;;;;;;2.43;1.50;;;21.30;99.90;;;;;;5033372;28;20532;-63
2023/08/09 07:13:05;;;;;;;1.50;1.40;;;21.20;99.90;;;;;;5033530;28;20468;-64
2023/08/09 07:15:32;;;;;;;1.60;1.50;;;21.20;99.90;;;;;;5033760;28;20914;-64
2023/08/09 07:17:59;;;;;;;1.67;1.57;;;21.20;99.90;;;;;;5033387;28;20443;-63
2023/08/09 07:20:26;;;;;;;1.20;1.10;;;21.30;99.90;;;;;;5033231;28;21065;-63
2023/08/09 07:22:53;;;;;;;2.27;1.70;;;21.20;99.90;;;;;;5033281;28;20488;-63
2023/08/09 07:25:22;;;;;;;1.40;1.30;;;21.30;99.90;;;;;;5033268;28;20438;-64
2023/08/09 07:27:50;;;;;;;1.50;1.40;;;21.20;99.90;;;;;;5033249;28;20472;-64
2023/08/09 07:30:18;;;;;;;1.47;1.37;;;21.20;99.90;;;;;;5033099;28;20469;-61
2023/08/09 07:32:45;;;;;;;1.50;1.40;;;21.20;99.90;;;;;;5033155;28;20461;-64
2023/08/09 07:35:13;;;;;;;1.73;1.63;;;21.30;99.90;;;;;;5033072;28;20552;-63
2023/08/09 07:37:42;;;;;;;1.40;1.40;;;21.20;99.90;;;;;;5033122;28;20860;-63
2023/08/09 07:40:12;;;;;;;1.83;1.73;;;21.20;99.90;;;;;;5032873;28;20912;-64
2023/08/09 07:42:40;;;;;;;1.90;1.80;;;21.20;99.90;;;;;;5031921;28;20543;-63
2023/08/09 07:45:09;;;;;;;1.77;1.67;;;21.20;99.90;;;;;;5032922;28;20473;-64
2023/08/09 07:47:36;;;;;;;1.30;1.30;;;21.30;99.90;;;;;;5032942;28;20449;-63
2023/08/09 07:50:03;;;;;;;2.23;1.53;;;21.20;99.90;;;;;;5032777;28;20461;-63
2023/08/09 07:52:30;;;;;;;1.60;1.50;;;21.20;99.90;;;;;;5032660;28;20527;-63
2023/08/09 07:54:58;;;;;;;1.93;1.83;;;21.30;99.90;;;;;;5032829;28;20468;-64
2023/08/09 07:57:25;;;;;;;1.60;1.50;;;21.20;99.90;;;;;;5032618;28;20476;-64
2023/08/09 07:59:53;;;;;;;2.60;1.77;;;21.30;99.90;;;;;;5032593;28;20508;-63
2023/08/09 08:02:20;;;;;;;1.90;1.80;;;21.30;99.90;;;;;;5032134;28;20465;-63
2023/08/09 08:04:47;;;;;;;1.80;1.70;;;21.20;99.90;;;;;;5032656;28;20960;-63
2023/08/09 08:07:14;;;;;;;1.07;1.07;;;21.20;99.90;;;;;;5032511;28;20901;-63
2023/08/09 08:09:42;;;;;;;1.80;1.70;;;21.20;99.90;;;;;;5032506;28;20452;-63
2023/08/09 08:12:11;;;;;;;1.87;1.77;;;21.20;99.90;;;;;;5032164;28;20467;-63
2023/08/09 08:14:38;;;;;;;2.13;2.03;;;21.30;99.90;;;;;;5032444;28;20445;-62
2023/08/09 08:17:06;;;;;;;1.80;1.70;;;21.20;99.90;;;;;;5032216;28;20462;-63
2023/08/09 08:19:33;;;;;;;1.60;1.50;;;21.20;99.90;;;;;;5032256;28;21024;-64
2023/08/09 08:22:01;;;;;;;2.20;1.43;;;21.30;99.90;;;;;;5031989;28;20493;-63
2023/08/09 08:24:27;;;;;;;1.50;1.50;;;21.30;99.90;;;;;;5024270;28;20480;-63
2023/08/09 08:26:55;;;;;;;2.47;1.50;;;21.20;99.90;;;;;;5032152;28;20475;-63
2023/08/09 08:29:23;;;;;;;1.83;1.60;;;21.20;99.90;;;;;;5032047;28;20961;-64
2023/08/09 08:31:50;;;;;;;1.47;1.37;;;21.20;99.90;;;;;;5031825;28;20872;-64
2023/08/09 08:34:21;;;;;;;1.53;1.43;;;21.20;99.90;;;;;;5031992;28;20824;-63
2023/08/09 08:36:48;;;;;;;1.50;1.40;;;21.20;99.90;;;;;;5032044;28;20898;-64
2023/08/09 08:39:15;;;;;;;1.83;1.73;;;21.20;99.90;;;;;;5031797;28;20559;-64
2023/08/09 08:41:42;;;;;;;1.53;1.43;;;21.20;99.90;;;;;;5031609;28;20452;-63
2023/08/09 08:44:11;;;;;;;1.47;1.37;;;21.20;99.90;;;;;;5031779;28;20468;-64
2023/08/09 08:46:38;;;;;;;1.60;1.50;;;21.20;99.90;;;;;;5031895;28;20447;-63
2023/08/09 08:49:06;;;;;;;2.00;1.90;;;21.20;99.90;;;;;;5031646;28;20477;-63
2023/08/09 08:51:36;;;;;;;1.70;1.60;;;21.20;99.90;;;;;;5031537;28;20461;-62
2023/08/09 08:54:03;;;;;;;2.00;1.90;;;21.30;99.90;;;;;;5031469;28;20452;-63
2023/08/09 08:56:31;;;;;;;2.10;1.90;;;21.20;99.90;;;;;;5031727;28;20452;-64
2023/08/09 08:58:59;;;;;;;1.30;1.20;;;21.20;99.90;;;;;;5031607;28;20496;-64
2023/08/09 09:01:27;;;;;;;1.70;1.60;;;21.30;99.90;;;;;;5031197;28;20469;-63
2023/08/09 09:03:53;;;;;;;2.27;2.07;;;21.30;99.90;;;;;;5031489;28;20488;-63
2023/08/09 09:06:21;;;;;;;1.73;1.50;;;21.30;99.90;;;;;;5031440;28;20532;-63
2023/08/09 09:08:55;;;;;;;1.33;1.33;;;21.20;99.90;;;;;;5031526;28;20532;-63
2023/08/09 09:11:23;;;;;;;1.50;1.40;;;21.20;99.90;;;;;;5031189;28;20815;-63
2023/08/09 09:13:51;;;;;;;2.00;1.60;;;21.30;99.90;;;;;;5031342;28;20548;-63
2023/08/09 09:16:19;;;;;;;1.67;1.57;;;21.20;99.90;;;;;;5031454;28;20480;-64
2023/08/09 09:18:48;;;;;;;1.77;1.70;;;21.20;99.90;;;;;;5031358;28;20437;-63
2023/08/09 09:21:16;;;;;;;1.27;1.20;;;21.30;99.90;;;;;;5031192;28;20465;-64
2023/08/09 09:23:43;;;;;;;1.13;1.13;;;21.30;99.90;;;;;;5031240;28;20457;-64
2023/08/09 09:26:14;;;;;;;1.43;1.33;;;21.30;99.90;;;;;;5031205;28;20494;-63
2023/08/09 09:28:42;;;;;;;1.53;1.53;;;21.30;99.90;;;;;;5031326;28;20455;-63
2023/08/09 09:31:10;;;;;;;1.80;1.73;;;21.30;99.90;;;;;;5031157;28;20455;-64
2023/08/09 09:33:39;;;;;;;1.73;1.67;;;21.30;99.90;;;;;;5031174;28;20879;-64
2023/08/09 09:36:11;;;;;;;1.50;1.40;;;21.30;99.90;;;;;;5031123;28;20812;-63
2023/08/09 09:38:38;;;;;;;1.70;1.60;;;21.30;99.90;;;;;;5031384;28;20878;-64
2023/08/09 09:41:07;;;;;;;1.20;1.20;;;21.30;99.90;;;;;;5030687;28;20488;-63
2023/08/09 09:43:40;;;;;;;1.40;1.30;;;21.30;99.90;;;;;;5031164;28;20887;-64
2023/08/09 09:46:18;;;;;;;1.30;1.20;;;21.30;99.90;;;;;;5031070;28;20447;-64
2023/08/09 09:48:49;;;;;;;1.17;1.17;;;21.30;99.90;;;;;;5031166;28;20448;-63
2023/08/09 09:51:18;;;;;;;1.60;1.50;;;21.30;99.90;;;;;;5030908;28;20499;-64
2023/08/09 09:53:46;;;;;;;1.23;1.20;;;21.30;99.90;;;;;;5031039;28;20496;-63
2023/08/09 09:56:13;;;;;;;1.50;1.40;;;21.30;99.90;;;;;;5030921;28;20524;-64
2023/08/09 09:58:42;;;;;;;1.63;1.60;;;21.30;99.90;;;;;;5031041;28;20500;-63
2023/08/09 10:01:10;;;;;;;1.20;1.13;;;21.30;99.90;;;;;;5030661;28;20855;-63
2023/08/09 10:03:39;;;;;;;1.33;1.33;;;21.30;99.90;;;;;;5030820;28;20469;-63
2023/08/09 10:06:13;;;;;;;1.50;1.40;;;21.30;99.90;;;;;;5034405;28;20880;-64
2023/08/09 10:08:41;;;;;;;1.73;1.63;;;21.30;99.90;;;;;;5034871;28;20452;-63
2023/08/09 10:11:09;;;;;;;1.60;1.60;;;21.30;99.90;;;;;;5034325;28;20469;-63
2023/08/09 10:13:39;;;;;;;1.70;1.60;;;21.30;99.90;;;;;;5034598;28;20457;-64
2023/08/09 10:16:10;;;;;;;1.13;1.13;;;21.30;99.90;;;;;;5034582;28;20449;-63
2023/08/09 10:18:41;;;;;;;0.97;0.97;;;21.30;99.90;;;;;;5034619;28;20499;-63
2023/08/09 10:21:10;;;;;;;1.50;1.40;;;21.30;99.90;;;;;;5034173;28;20900;-64
2023/08/09 10:23:37;;;;;;;1.27;1.27;;;21.30;99.90;;;;;;5034364;28;20496;-63
2023/08/09 10:26:04;;;;;;;1.30;1.30;;;21.30;99.90;;;;;;5034358;28;20444;-64
2023/08/09 10:28:49;;;;;;;1.50;1.27;;;21.30;99.90;;;;;;5034316;28;20447;-63
2023/08/09 10:31:47;;;;;;;1.23;1.23;;;21.40;99.90;;;;;;5034207;28;20940;-65
2023/08/09 10:34:15;;;;;;;1.70;1.60;;;21.40;99.90;;;;;;5034287;28;20472;-64
2023/08/09 10:36:43;;;;;;;3.80;1.30;;;21.40;99.90;;;;;;5034315;28;20445;-64
2023/08/09 10:39:12;;;;;;;1.13;1.13;;;21.40;99.90;;;;;;5034022;28;20473;-64
2023/08/09 10:41:53;;;;;;;1.23;1.23;;;21.40;99.90;;;;;;5033951;28;20437;-64
2023/08/09 10:44:32;;;;;;;2.20;1.50;;;21.40;99.90;;;;;;5034218;28;20864;-64
2023/08/09 10:47:06;;;;;;;1.00;1.00;;;21.40;99.90;;;;;;5034139;28;20855;-64
2023/08/09 10:49:46;;;;;;;1.10;1.10;;;21.40;99.90;;;;;;5025956;28;20433;-63
2023/08/09 10:52:13;;;;;;;0.80;0.80;;;21.40;99.90;;;;;;5033759;28;20489;-63
2023/08/09 10:54:40;;;;;;;1.10;0.90;;;21.40;99.90;;;;;;5033986;28;20472;-63
2023/08/09 10:57:09;;;;;;;1.47;1.30;;;21.40;99.90;;;;;;5033885;28;20981;-63
2023/08/09 10:59:39;;;;;;;1.40;1.40;;;21.40;99.90;;;;;;5026168;28;20851;-63
2023/08/09 11:02:07;;;;;;;1.50;1.40;;;21.40;99.90;;;;;;5058724;22;20469;-59
2023/08/09 11:04:34;;;;;;;1.67;1.57;;;21.40;99.90;;;;;;5025315;28;20448;-59
2023/08/09 11:07:02;;;;;;;1.57;1.57;;;21.40;99.90;;;;;;5025793;28;20469;-60
2023/08/09 11:09:30;;;;;;;1.10;1.10;;;21.40;99.90;;;;;;5022671;28;20442;-60
2023/08/09 11:11:57;;;;;;;1.30;1.20;;;21.40;99.90;;;;;;5022162;28;20442;-62
2023/08/09 11:14:25;;;;;;;1.13;1.13;;;21.40;99.90;;;;;;5024200;28;20496;-61
2023/08/09 11:16:52;;;;;;;1.10;1.10;;;21.50;99.90;;;;;;5025349;28;20872;-60
2023/08/09 11:19:22;;;;;;;1.00;1.00;;;21.50;99.90;;;;;;5023785;28;20449;-60
2023/08/09 11:21:51;;;;;;;1.33;1.23;;;21.50;99.90;;;;;;5021929;28;20478;-60
2023/08/09 11:24:20;;;;;;;0.97;0.97;;;21.50;99.90;;;;;;5023097;28;20494;-60
2023/08/09 11:26:48;;;;;;;1.10;1.10;;;21.50;99.90;;;;;;5025486;28;20500;-60
2023/08/09 11:29:17;;;;;;;1.07;1.07;;;21.50;99.90;;;;;;5024238;28;20496;-59
2023/08/09 11:31:45;;;;;;;1.13;1.13;;;21.50;99.90;;;;;;5026617;28;20472;-61
2023/08/09 11:34:14;;;;;;;1.30;1.30;;;21.50;99.90;;;;;;5024601;28;20461;-60
2023/08/09 11:36:42;;;;;;;2.00;1.90;;;21.50;99.90;;;;;;5021934;28;20876;-61
2023/08/09 11:39:10;;;;;;;1.17;1.13;;;21.50;99.90;;;;;;5021668;28;20893;-59
2023/08/09 11:41:42;;;;;;;1.00;1.00;;;21.50;99.90;;;;;;5024763;28;20477;-62
2023/08/09 11:44:11;;;;;;;1.20;1.10;;;21.50;99.90;;;;;;5025007;28;21023;-61
2023/08/09 11:46:38;;;;;;;1.17;1.17;;;21.50;99.90;;;;;;5025715;28;20476;-61
2023/08/09 11:49:05;;;;;;;1.07;1.07;;;21.50;99.90;;;;;;5025139;28;20437;-60
2023/08/09 11:51:34;;;;;;;1.17;1.17;;;21.50;99.90;;;;;;5021691;28;20481;-61
2023/08/09 11:54:03;;;;;;;1.00;1.00;;;21.50;99.90;;;;;;5021509;28;20562;-60
2023/08/09 11:56:33;;;;;;;1.27;1.27;;;21.50;99.90;;;;;;5023923;28;20503;-59
2023/08/09 11:59:01;;;;;;;1.23;1.23;;;21.50;99.90;;;;;;5024477;28;20473;-60
2023/08/09 12:01:30;;;;;;;1.30;1.20;;;21.50;99.90;;;;;;5021756;28;20921;-59
2023/08/09 12:03:59;;;;;;;1.43;1.33;;;21.60;99.90;;;;;;5021166;28;20489;-58
2023/08/09 12:06:39;;;;;;;1.13;1.13;;;21.60;99.90;;;;;;5023102;28;20949;-58
2023/08/09 12:09:30;;;;;;;0.90;0.90;;;21.60;99.90;;;;;;5024506;28;20441;-57
2023/08/09 12:12:03;;;;;;;1.17;1.07;;;21.60;99.90;;;;;;5021135;28;20438;-60
2023/08/09 12:14:29;;;;;;;1.53;1.43;;;21.60;99.90;;;;;;5023926;28;20474;-60
2023/08/09 12:16:56;;;;;;;2.30;1.10;;;21.60;99.90;;;;;;5024583;28;20829;-59
2023/08/09 12:19:23;;;;;;;1.20;1.20;;;21.60;99.90;;;;;;5022614;28;20480;-59
2023/08/09 12:21:50;;;;;;;0.93;0.90;;;21.60;99.90;;;;;;5020796;28;20520;-57
2023/08/09 12:24:17;;;;;;;1.00;1.00;;;21.60;99.90;;;;;;5021712;28;20494;-60
2023/08/09 12:26:45;;;;;;;0.90;0.90;;;21.60;99.90;;;;;;5024242;28;20472;-60
2023/08/09 12:29:12;;;;;;;1.30;1.20;;;21.60;99.90;;;;;;5024161;28;20451;-60
2023/08/09 12:31:40;;;;;;;1.33;1.30;;;21.60;99.90;;;;;;5021131;28;20485;-58
2023/08/09 12:34:08;;;;;;;1.07;1.00;;;21.60;99.90;;;;;;5021002;28;20477;-60
2023/08/09 12:36:35;;;;;;;1.10;1.10;;;21.60;99.90;;;;;;5023686;28;20892;-59
2023/08/09 12:39:02;;;;;;;0.87;0.87;;;21.60;99.90;;;;;;5024337;28;20495;-60
2023/08/09 12:41:29;;;;;;;1.23;1.13;;;21.60;99.90;;;;;;5021413;28;20560;-58
2023/08/09 12:43:57;;;;;;;0.87;0.87;;;21.60;99.90;;;;;;5020275;28;20485;-58
2023/08/09 12:46:24;;;;;;;1.10;1.10;;;21.70;99.90;;;;;;5022098;28;20924;-58
2023/08/09 12:48:51;;;;;;;1.00;1.00;;;21.70;99.90;;;;;;5023782;28;20983;-56
2023/08/09 12:51:18;;;;;;;0.80;0.80;;;21.70;99.90;;;;;;5022497;28;20442;-59